F/V Berriz Patxiku — ECES — position and weather

sailwx.info

Track history (hours):
 
Tides and Currents Weather Stations Pressure Air Temp Water Temp Dewpoint Dewpoint Depression Visibility Wind Speed Wind Dir Waves Ship Positions

F/V Berriz Patxiku

Last reported at 2014-Oct-31 09:32 UTC. Time now 2014-Nov-01 05:37 UTC.
Position N 43°39' W 001°57'.

Length 30 m.

Type: Fishing. MMSI: 224106260.

Date/timePositionNaut miles runAvg speedWind from/ knotsBaromVisibWave heightAir tempDewpointWater temp
2014-Oct-31 09:32N 43°39' W 001°57'10 9.8
2014-Oct-31 08:33N 43°48' W 001°51'10 9.8
2014-Oct-31 07:33N 43°57' W 001°45'10 9.6
2014-Oct-31 06:30N 44°06' W 001°39'1 1.2
2014-Oct-31 05:34N 44°07' W 001°38'3 2.7
2014-Oct-31 04:34N 44°04' W 001°37'0 0.4
2014-Oct-31 03:33N 44°04' W 001°37'5 5.3
2014-Oct-31 02:33N 43°59' W 001°39'4 3.6
2014-Oct-31 01:33N 43°55' W 001°40'1 0.9
2014-Oct-31 00:33N 43°55' W 001°40'1 0.7
2014-Oct-30 23:33N 43°54' W 001°39'2 1.7
2014-Oct-30 22:33N 43°53' W 001°38'8 8.3
2014-Oct-30 21:33N 43°45' W 001°36'1010.3
2014-Oct-30 20:32N 43°37' W 001°46'1210.2
2014-Oct-30 19:20N 43°28' W 001°59'8 9.7
2014-Oct-30 18:33N 43°23' W 002°06'43 5.1
2014-Oct-30 10:15N 44°04' W 001°50'710.3
2014-Oct-30 09:33N 44°11' W 001°46'1010.5
2014-Oct-30 08:33N 44°21' W 001°42'1010.3
2014-Oct-30 07:33N 44°30' W 001°37'10 9.8
2014-Oct-30 06:33N 44°40' W 001°32'1 0.7
2014-Oct-30 05:33N 44°40' W 001°32'0 0.4
2014-Oct-30 04:33N 44°40' W 001°31'2 1.8
2014-Oct-30 03:33N 44°39' W 001°30'1 0.7
2014-Oct-30 02:34N 44°38' W 001°30'1 0.7
2014-Oct-30 01:33N 44°37' W 001°30'2 1.8
2014-Oct-30 00:34N 44°35' W 001°29'1 0.7
2014-Oct-29 23:34N 44°35' W 001°29'2 2.2
2014-Oct-29 22:34N 44°33' W 001°30'1 1.0
2014-Oct-29 21:34N 44°32' W 001°30'5 5.3
2014-Oct-29 20:33N 44°27' W 001°34'3 2.7
2014-Oct-29 19:33N 44°25' W 001°35'3 3.2
2014-Oct-29 18:33N 44°23' W 001°31'1 1.3
2014-Oct-29 17:30N 44°24' W 001°33'4 3.6
2014-Oct-29 16:22N 44°24' W 001°38'0 0.4
2014-Oct-29 15:30N 44°24' W 001°39'1 0.6
2014-Oct-29 14:21N 44°24' W 001°39'0 0.6
2014-Oct-29 13:33N 44°23' W 001°38'1 0.7
2014-Oct-29 11:33N 44°22' W 001°37'1 0.8
2014-Oct-29 10:08N 44°21' W 001°36'0 0.7
2014-Oct-29 09:33N 44°20' W 001°36'1 0.8
2014-Oct-29 08:25N 44°20' W 001°36'1 0.8
2014-Oct-29 07:33N 44°19' W 001°36'1 0.9
2014-Oct-29 06:33N 44°18' W 001°35'3 3.1
2014-Oct-29 05:33N 44°17' W 001°32'1 1.3
2014-Oct-29 04:33N 44°16' W 001°33'3 3.1
2014-Oct-29 03:31N 44°15' W 001°29'1 1.2
2014-Oct-29 02:33N 44°15' W 001°28'7 6.8
2014-Oct-29 01:34N 44°21' W 001°29'9 6.0
2014-Oct-29 00:04N 44°13' W 001°35'510.4
2014-Oct-28 23:33N 44°08' W 001°37'  
2014-Oct-24 10:33N 43°18' W 002°12'1010.1
2014-Oct-24 09:33N 43°26' W 002°03'1010.4
2014-Oct-24 08:33N 43°34' W 001°53'1010.1
2014-Oct-24 07:33N 43°41' W 001°44'6 6.0
2014-Oct-24 06:33N 43°46' W 001°39'0 0.4
2014-Oct-24 05:29N 43°46' W 001°38'10 0.5
2014-Oct-23 09:05N 43°43' W 001°50'27 5.8
2014-Oct-23 04:29N 44°06' W 001°32'24 1.2
2014-Oct-22 08:19N 43°45' W 001°48'  
Track history (hours):
 
Tides and Currents Weather Stations Pressure Air Temp Water Temp Dewpoint Dewpoint Depression Visibility Wind Speed Wind Dir Waves Ship Positions

F/V Berriz Patxiku

Last reported at 2014-Oct-31 09:32 UTC. Time now 2014-Nov-01 05:37 UTC.
Position N 43°39' W 001°57'.

Length 30 m.

Type: Fishing. MMSI: 224106260.

Date/timePositionNaut miles runAvg speedWind from/ knotsBaromVisibWave heightAir tempDewpointWater temp
2014-Oct-31 09:32N 43°39' W 001°57'10 9.8
2014-Oct-31 08:33N 43°48' W 001°51'10 9.8
2014-Oct-31 07:33N 43°57' W 001°45'10 9.6
2014-Oct-31 06:30N 44°06' W 001°39'1 1.2
2014-Oct-31 05:34N 44°07' W 001°38'3 2.7
2014-Oct-31 04:34N 44°04' W 001°37'0 0.4
2014-Oct-31 03:33N 44°04' W 001°37'5 5.3
2014-Oct-31 02:33N 43°59' W 001°39'4 3.6
2014-Oct-31 01:33N 43°55' W 001°40'1 0.9
2014-Oct-31 00:33N 43°55' W 001°40'1 0.7
2014-Oct-30 23:33N 43°54' W 001°39'2 1.7
2014-Oct-30 22:33N 43°53' W 001°38'8 8.3
2014-Oct-30 21:33N 43°45' W 001°36'1010.3
2014-Oct-30 20:32N 43°37' W 001°46'1210.2
2014-Oct-30 19:20N 43°28' W 001°59'8 9.7
2014-Oct-30 18:33N 43°23' W 002°06'43 5.1
2014-Oct-30 10:15N 44°04' W 001°50'710.3
2014-Oct-30 09:33N 44°11' W 001°46'1010.5
2014-Oct-30 08:33N 44°21' W 001°42'1010.3
2014-Oct-30 07:33N 44°30' W 001°37'10 9.8
2014-Oct-30 06:33N 44°40' W 001°32'1 0.7
2014-Oct-30 05:33N 44°40' W 001°32'0 0.4
2014-Oct-30 04:33N 44°40' W 001°31'2 1.8
2014-Oct-30 03:33N 44°39' W 001°30'1 0.7
2014-Oct-30 02:34N 44°38' W 001°30'1 0.7
2014-Oct-30 01:33N 44°37' W 001°30'2 1.8
2014-Oct-30 00:34N 44°35' W 001°29'1 0.7
2014-Oct-29 23:34N 44°35' W 001°29'2 2.2
2014-Oct-29 22:34N 44°33' W 001°30'1 1.0
2014-Oct-29 21:34N 44°32' W 001°30'5 5.3
2014-Oct-29 20:33N 44°27' W 001°34'3 2.7
2014-Oct-29 19:33N 44°25' W 001°35'3 3.2
2014-Oct-29 18:33N 44°23' W 001°31'1 1.3
2014-Oct-29 17:30N 44°24' W 001°33'4 3.6
2014-Oct-29 16:22N 44°24' W 001°38'0 0.4
2014-Oct-29 15:30N 44°24' W 001°39'1 0.6
2014-Oct-29 14:21N 44°24' W 001°39'0 0.6
2014-Oct-29 13:33N 44°23' W 001°38'1 0.7
2014-Oct-29 11:33N 44°22' W 001°37'1 0.8
2014-Oct-29 10:08N 44°21' W 001°36'0 0.7
2014-Oct-29 09:33N 44°20' W 001°36'1 0.8
2014-Oct-29 08:25N 44°20' W 001°36'1 0.8
2014-Oct-29 07:33N 44°19' W 001°36'1 0.9
2014-Oct-29 06:33N 44°18' W 001°35'3 3.1
2014-Oct-29 05:33N 44°17' W 001°32'1 1.3
2014-Oct-29 04:33N 44°16' W 001°33'3 3.1
2014-Oct-29 03:31N 44°15' W 001°29'1 1.2
2014-Oct-29 02:33N 44°15' W 001°28'7 6.8
2014-Oct-29 01:34N 44°21' W 001°29'9 6.0
2014-Oct-29 00:04N 44°13' W 001°35'510.4
2014-Oct-28 23:33N 44°08' W 001°37'  
2014-Oct-24 10:33N 43°18' W 002°12'1010.1
2014-Oct-24 09:33N 43°26' W 002°03'1010.4
2014-Oct-24 08:33N 43°34' W 001°53'1010.1
2014-Oct-24 07:33N 43°41' W 001°44'6 6.0
2014-Oct-24 06:33N 43°46' W 001°39'0 0.4
2014-Oct-24 05:29N 43°46' W 001°38'10 0.5
2014-Oct-23 09:05N 43°43' W 001°50'27 5.8
2014-Oct-23 04:29N 44°06' W 001°32'24 1.2
2014-Oct-22 08:19N 43°45' W 001°48'  

Dump ship's entire track history